Time;durP1;ratioP1;P1;durP2;ratioP2;P2;SDS_P1;SDS_P2;PMS_P1;PMS_P2;Temp;Humidity;BMP_temperature;BMP_pressure;BME280_temperature;BME280_humidity;BME280_pressure;Samples;Min_cycle;Max_cycle;Signal;HPM_P1;HPM_P2
2024/02/04 00:01:16;;;;;;;2.00;1.60;;;12.70;99.90;;;;;;5078708;28;20180;-77
2024/02/04 00:03:42;;;;;;;2.30;1.37;;;12.70;99.90;;;;;;5071800;28;20187;-77
2024/02/04 00:06:08;;;;;;;3.57;1.23;;;12.70;99.90;;;;;;5073921;28;20605;-77
2024/02/04 00:08:33;;;;;;;1.67;1.20;;;12.60;99.90;;;;;;5092562;28;20191;-77
2024/02/04 00:10:59;;;;;;;1.60;1.10;;;12.60;99.90;;;;;;5074199;28;20168;-77
2024/02/04 00:13:25;;;;;;;1.80;1.20;;;12.60;99.90;;;;;;5074130;28;20176;-77
2024/02/04 00:15:54;;;;;;;1.70;1.30;;;12.60;99.90;;;;;;5092166;28;20210;-77
2024/02/04 00:18:19;;;;;;;2.58;1.50;;;12.60;99.90;;;;;;5076472;28;20644;-77
2024/02/04 00:20:45;;;;;;;2.77;2.00;;;12.60;99.90;;;;;;5084315;28;20172;-77
2024/02/04 00:23:11;;;;;;;3.37;2.70;;;12.60;99.90;;;;;;5091972;28;20637;-77
2024/02/04 00:25:36;;;;;;;3.10;2.57;;;12.60;99.90;;;;;;5056933;28;20652;-77
2024/02/04 00:28:02;;;;;;;3.40;3.03;;;12.60;99.90;;;;;;5073645;28;20180;-77
2024/02/04 00:30:28;;;;;;;4.00;3.50;;;12.50;99.90;;;;;;5057373;28;20168;-76
2024/02/04 00:32:54;;;;;;;4.13;3.40;;;12.50;99.90;;;;;;5073809;28;20582;-77
2024/02/04 00:35:19;;;;;;;4.47;3.63;;;12.50;99.90;;;;;;5061465;28;20172;-76
2024/02/04 00:37:45;;;;;;;4.00;3.57;;;12.50;99.90;;;;;;5045128;28;20199;-76
2024/02/04 00:40:11;;;;;;;3.77;3.13;;;12.50;99.90;;;;;;5056953;28;20237;-77
2024/02/04 00:42:37;;;;;;;4.13;3.70;;;12.40;99.90;;;;;;5074057;28;20183;-77
2024/02/04 00:45:03;;;;;;;3.77;2.90;;;12.40;99.90;;;;;;5067442;28;20578;-77
2024/02/04 00:47:29;;;;;;;3.10;2.80;;;12.40;99.90;;;;;;5059590;28;20219;-77
2024/02/04 00:49:54;;;;;;;2.97;2.50;;;12.40;99.90;;;;;;5059766;28;20650;-77
2024/02/04 00:52:20;;;;;;;2.10;1.90;;;12.40;99.90;;;;;;5072624;28;20597;-77
2024/02/04 00:54:46;;;;;;;2.23;2.00;;;12.40;99.90;;;;;;5074066;28;20179;-77
2024/02/04 00:57:11;;;;;;;1.83;1.13;;;12.40;99.90;;;;;;5044126;28;20631;-76
2024/02/04 00:59:37;;;;;;;3.00;2.00;;;12.30;99.90;;;;;;5073274;28;20744;-76
2024/02/04 01:02:03;;;;;;;3.93;2.47;;;12.30;99.90;;;;;;5073020;28;20206;-76
2024/02/04 01:04:29;;;;;;;2.20;1.67;;;12.30;99.90;;;;;;5067957;28;20184;-76
2024/02/04 01:06:54;;;;;;;1.97;1.37;;;12.30;99.90;;;;;;5070307;28;20702;-76
2024/02/04 01:09:20;;;;;;;1.60;1.20;;;12.30;99.90;;;;;;5052875;28;20196;-76
2024/02/04 01:11:46;;;;;;;1.70;1.27;;;12.30;99.90;;;;;;5065242;22;20174;-74
2024/02/04 01:14:11;;;;;;;1.63;1.20;;;12.30;99.90;;;;;;5052563;28;20176;-74
2024/02/04 01:16:37;;;;;;;1.70;1.20;;;12.30;99.90;;;;;;5019639;28;20262;-74
2024/02/04 01:19:03;;;;;;;1.57;1.10;;;12.30;99.90;;;;;;5036517;28;20180;-74
2024/02/04 01:21:29;;;;;;;1.57;1.00;;;12.30;99.90;;;;;;5038319;28;20603;-74
2024/02/04 01:23:54;;;;;;;1.60;1.00;;;12.30;99.90;;;;;;5021296;28;20586;-74
2024/02/04 01:26:20;;;;;;;1.40;0.80;;;12.30;99.90;;;;;;5053088;28;20176;-74
2024/02/04 01:28:46;;;;;;;1.60;0.90;;;12.20;99.90;;;;;;5052964;28;20657;-74
2024/02/04 01:31:12;;;;;;;2.50;1.10;;;12.30;99.90;;;;;;5037110;28;20187;-74
2024/02/04 01:33:37;;;;;;;3.53;1.90;;;12.30;99.90;;;;;;5031371;28;20192;-74
2024/02/04 01:36:03;;;;;;;2.40;1.70;;;12.30;99.90;;;;;;5044505;28;20177;-74
2024/02/04 01:38:29;;;;;;;3.10;1.50;;;12.30;99.90;;;;;;5053430;28;20742;-74
2024/02/04 01:40:54;;;;;;;1.40;0.80;;;12.30;99.90;;;;;;5070537;28;20685;-74
2024/02/04 01:43:21;;;;;;;1.70;1.00;;;12.30;99.90;;;;;;5048148;28;20200;-74
2024/02/04 01:45:48;;;;;;;2.20;0.85;;;12.30;99.90;;;;;;5054480;28;20493;-74
2024/02/04 01:48:15;;;;;;;6.93;1.35;;;12.30;99.90;;;;;;5042555;28;20185;-74
2024/02/04 01:50:42;;;;;;;1.93;1.30;;;12.30;99.90;;;;;;5031079;28;20619;-74
2024/02/04 01:53:08;;;;;;;2.35;1.40;;;12.30;99.90;;;;;;5052640;28;20641;-74
2024/02/04 01:55:34;;;;;;;1.38;0.90;;;12.30;99.90;;;;;;5043933;28;20195;-74
2024/02/04 01:58:01;;;;;;;1.70;0.93;;;12.30;99.90;;;;;;5036090;28;20212;-74
2024/02/04 02:00:26;;;;;;;1.40;0.90;;;12.30;99.90;;;;;;5026788;28;20651;-74
2024/02/04 02:02:53;;;;;;;1.40;0.80;;;12.30;99.90;;;;;;5068601;28;20598;-75
2024/02/04 02:05:19;;;;;;;1.40;0.90;;;12.30;99.90;;;;;;5031649;28;20258;-74
2024/02/04 02:07:47;;;;;;;2.50;1.57;;;12.30;99.90;;;;;;5022473;28;20215;-74
2024/02/04 02:10:13;;;;;;;2.22;0.80;;;12.30;99.90;;;;;;5060739;28;20256;-74
2024/02/04 02:13:04;;;;;;;1.50;0.80;;;12.30;99.90;;;;;;5052179;28;20436;-74
2024/02/04 02:15:36;;;;;;;1.60;0.80;;;12.30;99.90;;;;;;5035404;28;20176;-74
2024/02/04 02:18:04;;;;;;;1.33;0.83;;;12.30;99.90;;;;;;5026442;28;20252;-74
2024/02/04 02:21:21;;;;;;;1.37;0.70;;;12.30;99.90;;;;;;5028685;28;21111;-74
2024/02/04 02:24:22;;;;;;;1.80;1.07;;;12.30;99.90;;;;;;5003221;28;20615;-74
2024/02/04 02:26:50;;;;;;;2.63;1.05;;;12.30;99.90;;;;;;5044638;28;20595;-75
2024/02/04 02:29:15;;;;;;;1.60;1.10;;;12.30;99.90;;;;;;5069947;28;20540;-75
2024/02/04 02:31:42;;;;;;;1.40;0.97;;;12.30;99.90;;;;;;5052746;28;20574;-75
2024/02/04 02:34:10;;;;;;;2.90;0.90;;;12.30;99.90;;;;;;5060796;28;20176;-75
2024/02/04 02:36:45;;;;;;;1.50;0.90;;;12.30;99.90;;;;;;5050601;28;20583;-75
2024/02/04 02:39:27;;;;;;;1.60;1.00;;;12.30;99.90;;;;;;5032850;28;20686;-75
2024/02/04 02:41:57;;;;;;;3.85;0.98;;;12.30;99.90;;;;;;5050619;28;20700;-75
2024/02/04 02:44:25;;;;;;;1.50;1.00;;;12.40;99.90;;;;;;5036355;28;20176;-75
2024/02/04 02:46:52;;;;;;;4.33;1.10;;;12.40;99.90;;;;;;5052606;28;20651;-75
2024/02/04 02:49:18;;;;;;;1.53;0.90;;;12.40;99.90;;;;;;5049827;28;20921;-76
2024/02/04 02:51:43;;;;;;;1.70;0.90;;;12.40;99.90;;;;;;5036240;28;20675;-75
2024/02/04 02:54:09;;;;;;;1.70;0.80;;;12.40;99.90;;;;;;5037084;28;20173;-75
2024/02/04 02:56:35;;;;;;;3.47;1.07;;;12.40;99.90;;;;;;5032715;28;20204;-75
2024/02/04 02:59:00;;;;;;;1.80;0.87;;;12.40;99.90;;;;;;5033016;28;20615;-76
2024/02/04 03:01:26;;;;;;;1.83;1.10;;;12.40;99.90;;;;;;5070579;28;20259;-77
2024/02/04 03:03:52;;;;;;;1.90;1.07;;;12.40;99.90;;;;;;5063244;28;20300;-77
2024/02/04 03:06:18;;;;;;;1.40;0.83;;;12.40;99.90;;;;;;5016266;28;20169;-77
2024/02/04 03:08:44;;;;;;;3.63;1.13;;;12.50;99.90;;;;;;5060637;28;20670;-77
2024/02/04 03:11:10;;;;;;;1.70;1.20;;;12.50;99.90;;;;;;5033077;28;20173;-77
2024/02/04 03:13:39;;;;;;;1.67;1.00;;;12.50;99.90;;;;;;5050628;28;20859;-77
2024/02/04 03:16:09;;;;;;;1.58;1.08;;;12.50;99.90;;;;;;5034980;28;20169;-77
2024/02/04 03:18:35;;;;;;;1.53;1.07;;;12.50;99.90;;;;;;5036554;28;20192;-77
2024/02/04 03:21:01;;;;;;;1.50;1.00;;;12.50;99.90;;;;;;5042188;28;20594;-77
2024/02/04 03:23:26;;;;;;;1.60;0.90;;;12.50;99.90;;;;;;5019728;28;20634;-77
2024/02/04 03:25:52;;;;;;;1.93;1.37;;;12.50;99.90;;;;;;5036264;28;20180;-77
2024/02/04 03:28:19;;;;;;;2.07;1.20;;;12.50;99.90;;;;;;5036540;28;20229;-77
2024/02/04 03:30:44;;;;;;;1.75;1.08;;;12.50;99.90;;;;;;5024060;28;20664;-77
2024/02/04 03:33:10;;;;;;;1.90;1.20;;;12.50;99.90;;;;;;5034680;28;20287;-77
2024/02/04 03:35:37;;;;;;;2.97;1.50;;;12.50;99.90;;;;;;5016316;28;20182;-77
2024/02/04 03:38:03;;;;;;;1.60;1.00;;;12.50;99.90;;;;;;5016144;28;20241;-77
2024/02/04 03:40:29;;;;;;;2.23;1.60;;;12.50;99.90;;;;;;5016238;28;20200;-78
2024/02/04 03:42:55;;;;;;;1.90;1.27;;;12.60;99.90;;;;;;4999714;28;20221;-77
2024/02/04 03:45:21;;;;;;;1.47;1.13;;;12.60;99.90;;;;;;5056135;28;20514;-77
2024/02/04 03:47:46;;;;;;;2.30;1.67;;;12.60;99.90;;;;;;5039145;28;20172;-77
2024/02/04 03:50:12;;;;;;;3.10;1.63;;;12.50;99.90;;;;;;5055799;28;20692;-77
2024/02/04 03:52:39;;;;;;;2.00;1.50;;;12.60;99.90;;;;;;5055773;28;20200;-77
2024/02/04 03:55:05;;;;;;;2.80;1.80;;;12.60;99.90;;;;;;5039065;28;20176;-77
2024/02/04 03:57:32;;;;;;;4.18;2.78;;;12.60;99.90;;;;;;5055543;28;20618;-77
2024/02/04 03:59:58;;;;;;;2.13;1.53;;;12.60;99.90;;;;;;5055430;28;20164;-77
2024/02/04 04:02:24;;;;;;;2.17;1.67;;;12.60;99.90;;;;;;5055282;28;20702;-77
2024/02/04 04:04:49;;;;;;;1.70;1.50;;;12.60;99.90;;;;;;5073401;28;20175;-77
2024/02/04 04:07:15;;;;;;;1.97;1.53;;;12.60;99.90;;;;;;5057268;28;20173;-75
2024/02/04 04:09:41;;;;;;;2.80;1.87;;;12.60;99.90;;;;;;5071469;28;20218;-76
2024/02/04 04:12:06;;;;;;;4.27;1.97;;;12.70;99.90;;;;;;5072676;28;20219;-76
2024/02/04 04:14:32;;;;;;;2.57;1.60;;;12.70;99.90;;;;;;5068884;28;20176;-76
2024/02/04 04:16:58;;;;;;;3.07;1.70;;;12.60;99.90;;;;;;5052910;28;20173;-76
2024/02/04 04:19:24;;;;;;;2.10;1.60;;;12.60;99.90;;;;;;5072531;28;20641;-76
2024/02/04 04:21:50;;;;;;;2.57;1.87;;;12.70;99.90;;;;;;5046640;28;20249;-76
2024/02/04 04:24:19;;;;;;;3.47;1.50;;;12.70;99.90;;;;;;5064444;28;20946;-76
2024/02/04 04:26:45;;;;;;;2.33;1.55;;;12.70;99.90;;;;;;5039828;28;20205;-76
2024/02/04 04:29:11;;;;;;;2.47;1.47;;;12.70;99.90;;;;;;5052962;28;20201;-76
2024/02/04 04:31:36;;;;;;;1.80;1.50;;;12.70;99.90;;;;;;5052639;28;20176;-76
2024/02/04 04:34:02;;;;;;;1.90;1.40;;;12.70;99.90;;;;;;5018458;28;20177;-76
2024/02/04 04:36:27;;;;;;;1.67;1.37;;;12.70;99.90;;;;;;5034788;28;20264;-76
2024/02/04 04:38:53;;;;;;;1.97;1.43;;;12.70;99.90;;;;;;5052525;28;20755;-76
2024/02/04 04:41:19;;;;;;;2.73;1.73;;;12.80;99.90;;;;;;5053377;28;20301;-76
2024/02/04 04:43:44;;;;;;;1.90;1.50;;;12.70;99.90;;;;;;5073389;28;20570;-76
2024/02/04 04:46:10;;;;;;;2.50;1.50;;;12.70;99.90;;;;;;5054544;28;20525;-76
2024/02/04 04:48:36;;;;;;;3.00;1.40;;;12.70;99.90;;;;;;5072487;28;20179;-76
2024/02/04 04:51:02;;;;;;;2.03;1.60;;;12.80;99.90;;;;;;5056241;28;20183;-76
2024/02/04 04:53:27;;;;;;;3.50;2.27;;;12.70;99.90;;;;;;5034725;28;20278;-76
2024/02/04 04:55:53;;;;;;;1.97;1.77;;;12.80;99.90;;;;;;5052272;28;20181;-76
2024/02/04 04:58:18;;;;;;;2.40;1.77;;;12.80;99.90;;;;;;5052241;28;20299;-77
2024/02/04 05:00:44;;;;;;;2.20;1.80;;;12.80;99.90;;;;;;5017938;28;20169;-76
2024/02/04 05:03:10;;;;;;;2.80;2.07;;;12.80;99.90;;;;;;5017861;28;20197;-77
2024/02/04 05:05:36;;;;;;;3.03;1.73;;;12.80;99.90;;;;;;5052202;28;20227;-77
2024/02/04 05:08:02;;;;;;;3.47;1.80;;;12.80;99.90;;;;;;5042435;28;20595;-77
2024/02/04 05:10:28;;;;;;;2.60;2.30;;;12.90;99.90;;;;;;5034276;28;20176;-77
2024/02/04 05:12:53;;;;;;;2.33;2.00;;;12.80;99.90;;;;;;5040060;28;20622;-76
2024/02/04 05:15:19;;;;;;;3.17;2.30;;;12.90;99.90;;;;;;5027429;28;20655;-76
2024/02/04 05:17:45;;;;;;;2.80;2.50;;;12.90;99.90;;;;;;5033863;28;20203;-76
2024/02/04 05:20:11;;;;;;;4.60;2.37;;;12.80;99.90;;;;;;5034176;28;20173;-76
2024/02/04 05:22:36;;;;;;;4.27;3.00;;;12.90;99.90;;;;;;5033880;28;20200;-77
2024/02/04 05:25:04;;;;;;;3.17;2.20;;;12.90;99.90;;;;;;5017146;28;20168;-76
2024/02/04 05:27:30;;;;;;;3.27;2.40;;;12.90;99.90;;;;;;5033893;28;20180;-77
2024/02/04 05:29:56;;;;;;;3.70;2.27;;;12.90;99.90;;;;;;5058238;28;20926;-77
2024/02/04 05:32:21;;;;;;;2.63;2.13;;;12.90;99.90;;;;;;5037118;28;20189;-77
2024/02/04 05:34:48;;;;;;;1.90;1.67;;;12.90;99.90;;;;;;5048210;28;20520;-76
2024/02/04 05:37:13;;;;;;;2.63;1.93;;;12.90;99.90;;;;;;5033454;28;20193;-76
2024/02/04 05:39:39;;;;;;;2.13;1.93;;;12.90;99.90;;;;;;5051379;28;21156;-76
2024/02/04 05:42:05;;;;;;;4.97;2.10;;;12.90;99.90;;;;;;5033683;28;20266;-75
2024/02/04 05:44:30;;;;;;;3.10;2.80;;;12.90;99.90;;;;;;5030537;28;20185;-75
2024/02/04 05:46:56;;;;;;;2.80;2.23;;;12.90;99.90;;;;;;5028201;28;20173;-75
2024/02/04 05:49:22;;;;;;;2.53;2.20;;;12.90;99.90;;;;;;5033476;28;20173;-75
2024/02/04 05:51:47;;;;;;;4.63;2.53;;;12.90;99.90;;;;;;5041708;28;20197;-75
2024/02/04 05:54:13;;;;;;;2.47;2.07;;;12.90;99.90;;;;;;5033858;28;20192;-76
2024/02/04 05:56:39;;;;;;;2.70;2.43;;;12.90;99.90;;;;;;5058881;28;20635;-75
2024/02/04 05:59:05;;;;;;;4.23;2.43;;;12.90;99.90;;;;;;5017083;28;20209;-76
2024/02/04 06:01:31;;;;;;;2.47;2.27;;;12.90;99.90;;;;;;5036046;28;20180;-76
2024/02/04 06:03:57;;;;;;;3.17;2.80;;;12.90;99.90;;;;;;5071020;28;20583;-76
2024/02/04 06:06:23;;;;;;;2.83;2.37;;;12.90;99.90;;;;;;5068085;28;21016;-75
2024/02/04 06:08:48;;;;;;;3.70;2.90;;;12.90;99.90;;;;;;5033275;28;20200;-75
2024/02/04 06:11:15;;;;;;;3.20;2.40;;;12.90;99.90;;;;;;5042398;28;20239;-75
2024/02/04 06:13:42;;;;;;;5.03;2.53;;;12.90;99.90;;;;;;5043069;28;20638;-75
2024/02/04 06:16:08;;;;;;;2.83;2.47;;;12.90;99.90;;;;;;5049969;28;20578;-76
2024/02/04 06:18:37;;;;;;;2.87;2.13;;;12.90;99.90;;;;;;5033068;28;20731;-75
2024/02/04 06:21:03;;;;;;;3.50;2.40;;;12.90;99.90;;;;;;5050873;28;20678;-76
2024/02/04 06:23:29;;;;;;;3.63;2.43;;;12.90;99.90;;;;;;5049049;28;20638;-76
2024/02/04 06:25:55;;;;;;;2.60;2.40;;;12.90;99.90;;;;;;5033130;28;21140;-76
2024/02/04 06:28:20;;;;;;;3.97;2.67;;;12.90;99.90;;;;;;5031823;28;20251;-76
2024/02/04 06:30:46;;;;;;;2.63;2.33;;;12.90;99.90;;;;;;5039197;28;20275;-76
2024/02/04 06:33:12;;;;;;;3.43;2.30;;;12.90;99.90;;;;;;5019537;28;20690;-76
2024/02/04 06:35:38;;;;;;;3.47;2.40;;;12.90;99.90;;;;;;5044811;28;20176;-76
2024/02/04 06:38:03;;;;;;;2.27;2.07;;;12.90;99.90;;;;;;5052824;28;20614;-76
2024/02/04 06:40:29;;;;;;;2.80;2.30;;;12.90;99.90;;;;;;5053048;28;20175;-76
2024/02/04 06:42:55;;;;;;;3.27;2.00;;;12.90;99.90;;;;;;5056641;28;20185;-76
2024/02/04 06:45:20;;;;;;;1.83;1.40;;;12.90;99.90;;;;;;5050789;28;20169;-76
2024/02/04 06:47:46;;;;;;;2.60;1.57;;;12.90;99.90;;;;;;5050769;28;20523;-75
2024/02/04 06:50:15;;;;;;;1.80;1.30;;;12.90;99.90;;;;;;5051647;28;20192;-76
2024/02/04 06:52:42;;;;;;;2.10;1.20;;;12.90;99.90;;;;;;5048743;28;20195;-76
2024/02/04 06:55:08;;;;;;;1.60;0.90;;;12.90;99.90;;;;;;5074854;28;20566;-76
2024/02/04 06:57:34;;;;;;;1.40;0.90;;;12.90;99.90;;;;;;5053534;28;20200;-76
2024/02/04 07:00:00;;;;;;;1.80;0.90;;;12.90;99.90;;;;;;5036769;28;20988;-76
2024/02/04 07:02:26;;;;;;;2.30;0.80;;;12.90;99.90;;;;;;5010376;28;20224;-76
2024/02/04 07:04:52;;;;;;;1.93;0.90;;;12.90;99.90;;;;;;5017332;28;20678;-77
2024/02/04 07:07:18;;;;;;;1.40;0.70;;;12.90;99.90;;;;;;5034878;28;20194;-77
2024/02/04 07:09:44;;;;;;;1.87;0.80;;;12.90;99.90;;;;;;5017048;28;20584;-77
2024/02/04 07:12:09;;;;;;;1.50;0.70;;;12.90;99.90;;;;;;5017169;28;20568;-77
2024/02/04 07:14:35;;;;;;;1.50;0.70;;;12.90;99.90;;;;;;5016856;28;20205;-77
2024/02/04 07:17:01;;;;;;;2.40;0.80;;;12.90;99.90;;;;;;5022645;28;20275;-77
2024/02/04 07:19:26;;;;;;;1.20;0.57;;;12.90;99.90;;;;;;5035733;28;20540;-77
2024/02/04 07:21:52;;;;;;;1.23;0.60;;;12.80;99.90;;;;;;5053800;28;20189;-78
2024/02/04 07:24:18;;;;;;;1.30;0.90;;;12.90;99.90;;;;;;5053532;28;20243;-77
2024/02/04 07:26:45;;;;;;;1.40;0.80;;;12.80;99.90;;;;;;5036046;28;20181;-77
2024/02/04 07:29:12;;;;;;;1.30;0.70;;;12.90;99.90;;;;;;5053842;28;21046;-77
2024/02/04 07:31:38;;;;;;;1.10;0.60;;;12.90;99.90;;;;;;5035585;28;20937;-77
2024/02/04 07:34:05;;;;;;;1.23;0.60;;;12.80;99.90;;;;;;5042955;28;20237;-77
2024/02/04 07:36:31;;;;;;;1.47;0.70;;;12.80;99.90;;;;;;5035182;28;20181;-78
2024/02/04 07:38:56;;;;;;;1.70;0.70;;;12.80;99.90;;;;;;5018553;28;20784;-78
2024/02/04 07:41:22;;;;;;;1.60;0.70;;;12.90;99.90;;;;;;5018468;28;20694;-78
2024/02/04 07:43:48;;;;;;;1.30;0.70;;;12.80;99.90;;;;;;5052811;28;20446;-78
2024/02/04 07:46:14;;;;;;;2.27;0.80;;;12.90;99.90;;;;;;5035104;28;20956;-78
2024/02/04 07:48:40;;;;;;;2.17;0.70;;;12.90;99.90;;;;;;5053150;28;20575;-77
2024/02/04 07:51:08;;;;;;;1.50;0.70;;;12.90;99.90;;;;;;5027082;28;20176;-78
2024/02/04 07:53:34;;;;;;;1.67;0.68;;;12.90;99.90;;;;;;5052460;28;20638;-78
2024/02/04 07:56:00;;;;;;;1.23;0.70;;;13.00;99.90;;;;;;5052878;28;20586;-78
2024/02/04 07:58:27;;;;;;;1.40;0.60;;;13.00;99.90;;;;;;5033833;28;20629;-78
2024/02/04 08:00:52;;;;;;;1.20;0.60;;;13.00;99.90;;;;;;5028062;28;20181;-78
2024/02/04 08:03:18;;;;;;;1.87;0.50;;;13.00;99.90;;;;;;5017397;28;20201;-78
2024/02/04 08:05:44;;;;;;;1.20;0.60;;;13.10;99.90;;;;;;5034923;28;20230;-78
2024/02/04 08:08:09;;;;;;;1.83;0.60;;;13.00;99.90;;;;;;5034683;28;20181;-78
2024/02/04 08:10:35;;;;;;;1.33;0.60;;;13.10;99.90;;;;;;5034919;28;20177;-78
2024/02/04 08:13:01;;;;;;;1.57;0.70;;;13.10;99.90;;;;;;5012250;28;20582;-78
2024/02/04 08:15:27;;;;;;;2.13;0.70;;;13.10;99.90;;;;;;5031930;28;20181;-78
2024/02/04 08:17:52;;;;;;;2.23;1.20;;;13.20;99.90;;;;;;5052001;28;20243;-77
2024/02/04 08:20:18;;;;;;;1.50;0.70;;;13.20;99.90;;;;;;5034368;28;20590;-77
2024/02/04 08:22:44;;;;;;;1.30;0.63;;;13.30;99.90;;;;;;5022821;28;20193;-76
2024/02/04 08:25:11;;;;;;;1.30;0.70;;;13.20;99.90;;;;;;5029239;28;20591;-77
2024/02/04 08:27:38;;;;;;;1.47;0.90;;;13.30;99.90;;;;;;5052003;28;20180;-78
2024/02/04 08:30:04;;;;;;;2.27;1.47;;;13.30;99.90;;;;;;5034160;28;20619;-78
2024/02/04 08:32:30;;;;;;;2.10;1.23;;;13.30;99.90;;;;;;5017636;28;20619;-77
2024/02/04 08:34:56;;;;;;;3.20;1.93;;;13.40;99.90;;;;;;5017321;28;20575;-77
2024/02/04 08:37:22;;;;;;;3.37;1.40;;;13.40;99.90;;;;;;5052215;28;20670;-77
2024/02/04 08:39:48;;;;;;;1.80;1.00;;;13.40;99.90;;;;;;5034065;28;20962;-77
2024/02/04 08:42:14;;;;;;;2.30;1.20;;;13.40;99.90;;;;;;5052167;28;20622;-77
2024/02/04 08:44:41;;;;;;;2.10;1.20;;;13.50;99.90;;;;;;5033378;28;20173;-77
2024/02/04 08:47:10;;;;;;;4.30;1.23;;;13.50;99.90;;;;;;5051809;28;20595;-76
2024/02/04 08:49:36;;;;;;;1.93;1.00;;;13.50;99.90;;;;;;5034004;28;20597;-77
2024/02/04 08:52:02;;;;;;;5.93;0.90;;;13.50;99.90;;;;;;5034049;28;20700;-77
2024/02/04 08:54:28;;;;;;;5.33;3.07;;;13.40;99.90;;;;;;5051333;28;20678;-77
2024/02/04 08:56:54;;;;;;;3.77;2.60;;;13.50;99.90;;;;;;5033836;28;20729;-76
2024/02/04 08:59:20;;;;;;;2.43;1.67;;;13.40;99.90;;;;;;5046713;28;21191;-78
2024/02/04 09:01:46;;;;;;;1.43;0.90;;;13.40;99.90;;;;;;5050008;28;20683;-77
2024/02/04 09:04:11;;;;;;;1.70;0.70;;;13.50;99.90;;;;;;5051535;28;21098;-77
2024/02/04 09:06:37;;;;;;;1.30;0.70;;;13.40;99.90;;;;;;5033878;28;20180;-77
2024/02/04 09:09:03;;;;;;;1.57;0.70;;;13.50;99.90;;;;;;5051659;28;20654;-76
2024/02/04 09:11:29;;;;;;;1.50;0.60;;;13.50;99.90;;;;;;5051389;28;20173;-77
2024/02/04 09:13:54;;;;;;;1.20;0.63;;;13.60;99.90;;;;;;5016079;28;20185;-76
2024/02/04 09:16:20;;;;;;;1.63;0.80;;;13.60;99.90;;;;;;5033604;28;20583;-76
2024/02/04 09:18:47;;;;;;;1.10;0.60;;;13.60;99.90;;;;;;5057130;28;20193;-76
2024/02/04 09:21:13;;;;;;;1.30;0.60;;;13.70;99.90;;;;;;5043374;28;20179;-76
2024/02/04 09:23:46;;;;;;;1.20;0.50;;;13.70;99.90;;;;;;5036962;28;20599;-77
2024/02/04 09:26:12;;;;;;;1.30;0.60;;;13.80;99.90;;;;;;5033387;28;20576;-77
2024/02/04 09:28:38;;;;;;;1.43;0.50;;;13.80;99.90;;;;;;5050872;28;20586;-77
2024/02/04 09:31:03;;;;;;;1.50;0.50;;;13.80;99.90;;;;;;5033478;28;20180;-77
2024/02/04 09:33:29;;;;;;;1.20;0.50;;;13.90;99.90;;;;;;5033270;28;20223;-77
2024/02/04 09:35:55;;;;;;;1.20;0.60;;;13.90;99.90;;;;;;5046666;28;20550;-77
2024/02/04 09:38:21;;;;;;;1.13;0.50;;;13.90;99.90;;;;;;5047285;28;20662;-77
2024/02/04 09:40:47;;;;;;;1.17;0.50;;;14.00;99.90;;;;;;5033363;28;20774;-79
2024/02/04 09:43:13;;;;;;;1.60;0.60;;;14.00;99.90;;;;;;5033147;28;20197;-77
2024/02/04 09:45:39;;;;;;;1.90;0.50;;;14.00;99.90;;;;;;5033037;28;20576;-75
2024/02/04 09:48:07;;;;;;;1.30;0.60;;;14.10;99.90;;;;;;5033280;28;20587;-76
2024/02/04 09:50:33;;;;;;;1.67;0.60;;;14.00;99.90;;;;;;5050804;28;20615;-77
2024/02/04 09:56:47;;;;;;;1.30;0.70;;;14.00;99.90;;;;;;5051052;28;20181;-77
2024/02/04 09:59:13;;;;;;;1.50;0.70;;;14.00;99.90;;;;;;5032925;28;20650;-77
2024/02/04 10:01:39;;;;;;;1.40;0.70;;;14.10;99.90;;;;;;5033066;28;20591;-78
2024/02/04 10:04:05;;;;;;;3.10;1.63;;;14.10;99.90;;;;;;5047402;28;20204;-77
2024/02/04 10:06:32;;;;;;;3.40;1.63;;;14.10;99.90;;;;;;5050779;28;20623;-77
2024/02/04 10:08:57;;;;;;;4.97;0.80;;;14.20;99.90;;;;;;5053548;28;20173;-78
2024/02/04 10:11:23;;;;;;;1.60;0.80;;;14.20;99.90;;;;;;5025761;28;21198;-77
2024/02/04 10:13:49;;;;;;;2.40;0.80;;;14.20;99.90;;;;;;5050195;28;20212;-77
2024/02/04 10:16:16;;;;;;;1.50;0.70;;;14.30;99.90;;;;;;5030332;28;20283;-77
2024/02/04 10:18:46;;;;;;;1.40;0.80;;;14.30;99.90;;;;;;5017486;28;20639;-77
2024/02/04 10:21:19;;;;;;;2.63;0.80;;;14.40;99.90;;;;;;5046738;28;20760;-77
2024/02/04 10:23:46;;;;;;;1.40;0.70;;;14.40;99.90;;;;;;5055457;28;20623;-77
2024/02/04 10:26:12;;;;;;;2.43;0.70;;;14.40;99.90;;;;;;5038709;28;20598;-77
2024/02/04 10:28:39;;;;;;;1.47;0.70;;;14.40;99.90;;;;;;5068909;28;20624;-76
2024/02/04 10:31:05;;;;;;;2.03;0.80;;;14.40;99.90;;;;;;5035102;28;20598;-77
2024/02/04 10:33:31;;;;;;;2.43;0.80;;;14.40;99.90;;;;;;5063257;28;21186;-77
2024/02/04 10:35:57;;;;;;;2.67;0.80;;;14.40;99.90;;;;;;5063074;28;20172;-77
2024/02/04 10:38:24;;;;;;;1.50;0.70;;;14.30;99.90;;;;;;5070919;28;20641;-77
2024/02/04 10:40:53;;;;;;;2.00;0.90;;;14.20;99.90;;;;;;5047078;28;20239;-79
2024/02/04 10:43:20;;;;;;;1.70;0.87;;;14.20;99.90;;;;;;5052126;28;20650;-77
2024/02/04 10:45:47;;;;;;;1.67;0.97;;;14.30;99.90;;;;;;5066463;28;20587;-76
2024/02/04 10:48:15;;;;;;;1.90;1.00;;;14.30;99.90;;;;;;5021875;28;20605;-74
2024/02/04 10:50:43;;;;;;;1.50;0.80;;;14.30;99.90;;;;;;5045736;28;20596;-75
2024/02/04 10:53:13;;;;;;;4.33;0.90;;;14.40;99.90;;;;;;5051592;28;20626;-76
2024/02/04 10:55:42;;;;;;;1.67;0.80;;;14.30;99.90;;;;;;5057644;28;20610;-74
2024/02/04 10:58:10;;;;;;;1.77;1.00;;;14.40;99.90;;;;;;5060076;28;21175;-75
2024/02/04 11:00:37;;;;;;;1.67;0.87;;;14.40;99.90;;;;;;5049400;28;20614;-75
2024/02/04 11:03:04;;;;;;;2.10;1.00;;;14.40;99.90;;;;;;5042660;28;20797;-75
2024/02/04 11:05:32;;;;;;;1.60;0.80;;;14.40;99.90;;;;;;5063461;28;20648;-75
2024/02/04 11:07:58;;;;;;;1.50;0.70;;;14.40;99.90;;;;;;5051734;28;20583;-74
2024/02/04 11:10:27;;;;;;;1.30;0.60;;;14.40;99.90;;;;;;5061409;28;20603;-74
2024/02/04 11:12:55;;;;;;;1.60;0.63;;;14.40;99.90;;;;;;5049510;28;20630;-74
2024/02/04 11:15:22;;;;;;;1.53;0.73;;;14.40;99.90;;;;;;5067329;28;20594;-74
2024/02/04 11:18:15;;;;;;;2.33;0.60;;;14.40;99.90;;;;;;5050708;28;20646;-74
2024/02/04 11:21:00;;;;;;;1.83;1.03;;;14.50;99.90;;;;;;5061295;28;20619;-74
2024/02/04 11:23:37;;;;;;;3.50;1.87;;;14.50;99.90;;;;;;5058110;28;20613;-74
2024/02/04 11:26:04;;;;;;;5.00;2.23;;;14.70;99.90;;;;;;5051637;28;20586;-75
2024/02/04 11:28:31;;;;;;;2.27;1.00;;;14.80;99.90;;;;;;5069659;28;20592;-75
2024/02/04 11:30:57;;;;;;;1.80;0.80;;;14.90;99.90;;;;;;5051269;28;20594;-74
2024/02/04 11:33:23;;;;;;;1.53;0.90;;;15.00;99.90;;;;;;5043885;28;21181;-75
2024/02/04 11:36:13;;;;;;;2.43;1.20;;;15.10;99.90;;;;;;5050016;28;20178;-75
2024/02/04 11:38:39;;;;;;;4.03;0.90;;;15.20;99.90;;;;;;5054751;28;20642;-75
2024/02/04 11:41:05;;;;;;;2.07;1.10;;;15.30;99.90;;;;;;5055143;28;20655;-75
2024/02/04 11:43:38;;;;;;;2.47;0.90;;;15.40;99.90;;;;;;5054292;28;20680;-75
2024/02/04 11:46:04;;;;;;;2.23;1.10;;;15.40;99.90;;;;;;5048220;28;20594;-75
2024/02/04 11:48:33;;;;;;;3.07;2.10;;;15.40;99.90;;;;;;5055222;28;20598;-74
2024/02/04 11:51:00;;;;;;;2.50;1.70;;;15.40;99.90;;;;;;5030670;28;20597;-75
2024/02/04 11:53:32;;;;;;;2.47;1.10;;;15.40;99.90;;;;;;5071965;28;20614;-75
2024/02/04 11:56:00;;;;;;;2.00;1.23;;;15.30;99.90;;;;;;5030269;28;20601;-76
2024/02/04 11:58:28;;;;;;;2.33;1.50;;;15.20;99.90;;;;;;5054628;28;20729;-75
2024/02/04 12:03:30;;;;;;;2.53;1.60;;;15.20;99.90;;;;;;5022511;28;21221;-73
2024/02/04 12:05:56;;;;;;;1.60;1.07;;;15.20;99.90;;;;;;5003656;28;20643;-73
2024/02/04 12:08:23;;;;;;;1.73;0.83;;;15.20;99.90;;;;;;4994873;28;20593;-72
2024/02/04 12:10:50;;;;;;;1.40;0.80;;;15.20;99.90;;;;;;5001665;28;20712;-73
2024/02/04 12:13:16;;;;;;;2.60;1.00;;;15.20;99.90;;;;;;4986232;28;20730;-72
2024/02/04 12:15:42;;;;;;;2.63;0.90;;;15.10;99.90;;;;;;5027143;28;20666;-72
2024/02/04 12:18:09;;;;;;;1.30;0.63;;;15.10;99.90;;;;;;5030237;28;20639;-73
2024/02/04 12:20:36;;;;;;;2.00;1.20;;;15.10;99.90;;;;;;5011361;28;20642;-72
2024/02/04 12:23:03;;;;;;;3.13;1.40;;;15.10;99.90;;;;;;5032016;28;20616;-72
2024/02/04 12:25:30;;;;;;;1.77;1.07;;;15.00;99.90;;;;;;5031276;28;20596;-72
2024/02/04 12:28:02;;;;;;;1.37;0.70;;;15.00;99.90;;;;;;5015899;28;20588;-72
2024/02/04 12:30:29;;;;;;;1.50;0.87;;;15.00;99.90;;;;;;5006785;28;20597;-72
2024/02/04 12:32:59;;;;;;;1.93;0.80;;;14.90;99.90;;;;;;5029866;28;20654;-72
2024/02/04 12:35:25;;;;;;;2.67;1.00;;;14.90;99.90;;;;;;5030762;28;20599;-72
2024/02/04 12:37:52;;;;;;;2.33;0.70;;;14.90;99.90;;;;;;5027547;28;20659;-72
2024/02/04 12:40:26;;;;;;;3.67;0.80;;;14.90;99.90;;;;;;5024965;28;20993;-72
2024/02/04 12:42:59;;;;;;;1.60;0.77;;;14.90;99.90;;;;;;5024409;28;20685;-72
2024/02/04 12:45:26;;;;;;;2.00;0.90;;;14.80;99.90;;;;;;5024078;28;20592;-72
2024/02/04 12:47:53;;;;;;;3.00;1.70;;;14.80;99.90;;;;;;5012881;28;20600;-72
2024/02/04 12:50:20;;;;;;;4.20;2.10;;;14.80;99.90;;;;;;5030376;28;21255;-72
2024/02/04 12:52:47;;;;;;;2.33;1.50;;;14.80;99.90;;;;;;5029538;28;20627;-72